sensor_id;sensor_type;location;lat;lon;timestamp;P1;durP1;ratioP1;P2;durP2;ratioP2
17365;SDS011;8800;50.118;9.900;2023-10-31T00:01:40;3.60;;;2.55;;
17365;SDS011;8800;50.118;9.900;2023-10-31T00:04:07;2.90;;;2.20;;
17365;SDS011;8800;50.118;9.900;2023-10-31T00:06:35;4.15;;;1.98;;
17365;SDS011;8800;50.118;9.900;2023-10-31T00:09:02;6.05;;;2.88;;
17365;SDS011;8800;50.118;9.900;2023-10-31T00:11:29;4.90;;;2.75;;
17365;SDS011;8800;50.118;9.900;2023-10-31T00:13:57;3.47;;;2.47;;
17365;SDS011;8800;50.118;9.900;2023-10-31T00:16:23;3.45;;;2.10;;
17365;SDS011;8800;50.118;9.900;2023-10-31T00:18:51;2.22;;;1.65;;
17365;SDS011;8800;50.118;9.900;2023-10-31T00:21:18;3.17;;;2.28;;
17365;SDS011;8800;50.118;9.900;2023-10-31T00:23:45;4.35;;;2.30;;
17365;SDS011;8800;50.118;9.900;2023-10-31T00:26:11;4.57;;;2.10;;
17365;SDS011;8800;50.118;9.900;2023-10-31T00:28:38;2.63;;;1.90;;
17365;SDS011;8800;50.118;9.900;2023-10-31T00:31:06;4.13;;;2.25;;
17365;SDS011;8800;50.118;9.900;2023-10-31T00:33:33;4.18;;;2.20;;
17365;SDS011;8800;50.118;9.900;2023-10-31T00:36:00;4.50;;;2.63;;
17365;SDS011;8800;50.118;9.900;2023-10-31T00:38:27;4.50;;;2.65;;
17365;SDS011;8800;50.118;9.900;2023-10-31T00:40:54;0.98;;;0.90;;
17365;SDS011;8800;50.118;9.900;2023-10-31T00:43:20;1.60;;;1.23;;
17365;SDS011;8800;50.118;9.900;2023-10-31T00:45:47;3.42;;;1.40;;
17365;SDS011;8800;50.118;9.900;2023-10-31T00:48:15;1.33;;;0.80;;
17365;SDS011;8800;50.118;9.900;2023-10-31T00:50:42;1.10;;;0.82;;
17365;SDS011;8800;50.118;9.900;2023-10-31T00:53:09;1.55;;;0.70;;
17365;SDS011;8800;50.118;9.900;2023-10-31T00:55:36;0.60;;;0.52;;
17365;SDS011;8800;50.118;9.900;2023-10-31T00:58:02;3.05;;;0.70;;
17365;SDS011;8800;50.118;9.900;2023-10-31T01:00:29;3.30;;;0.85;;
17365;SDS011;8800;50.118;9.900;2023-10-31T01:02:57;1.58;;;0.82;;
17365;SDS011;8800;50.118;9.900;2023-10-31T01:05:24;2.20;;;0.85;;
17365;SDS011;8800;50.118;9.900;2023-10-31T01:07:52;0.80;;;0.65;;
17365;SDS011;8800;50.118;9.900;2023-10-31T01:10:18;1.27;;;0.90;;
17365;SDS011;8800;50.118;9.900;2023-10-31T01:12:45;2.15;;;1.10;;
17365;SDS011;8800;50.118;9.900;2023-10-31T01:15:11;2.38;;;1.30;;
17365;SDS011;8800;50.118;9.900;2023-10-31T01:17:38;2.33;;;0.98;;
17365;SDS011;8800;50.118;9.900;2023-10-31T01:20:06;1.40;;;0.68;;
17365;SDS011;8800;50.118;9.900;2023-10-31T01:22:34;1.95;;;0.68;;
17365;SDS011;8800;50.118;9.900;2023-10-31T01:25:01;3.08;;;0.70;;
17365;SDS011;8800;50.118;9.900;2023-10-31T01:27:27;2.35;;;0.63;;
17365;SDS011;8800;50.118;9.900;2023-10-31T01:29:54;2.22;;;0.73;;
17365;SDS011;8800;50.118;9.900;2023-10-31T01:32:20;1.17;;;0.75;;
17365;SDS011;8800;50.118;9.900;2023-10-31T01:34:47;1.00;;;0.77;;
17365;SDS011;8800;50.118;9.900;2023-10-31T01:37:14;4.57;;;2.00;;
17365;SDS011;8800;50.118;9.900;2023-10-31T01:39:42;1.20;;;0.47;;
17365;SDS011;8800;50.118;9.900;2023-10-31T01:42:08;0.70;;;0.50;;
17365;SDS011;8800;50.118;9.900;2023-10-31T01:44:35;1.13;;;0.47;;
17365;SDS011;8800;50.118;9.900;2023-10-31T01:47:02;1.42;;;0.40;;
17365;SDS011;8800;50.118;9.900;2023-10-31T01:49:28;1.83;;;0.60;;
17365;SDS011;8800;50.118;9.900;2023-10-31T01:51:55;1.02;;;0.70;;
17365;SDS011;8800;50.118;9.900;2023-10-31T01:54:22;1.55;;;0.50;;
17365;SDS011;8800;50.118;9.900;2023-10-31T01:56:50;2.15;;;0.52;;
17365;SDS011;8800;50.118;9.900;2023-10-31T01:59:21;1.27;;;0.60;;
17365;SDS011;8800;50.118;9.900;2023-10-31T02:01:48;0.60;;;0.50;;
17365;SDS011;8800;50.118;9.900;2023-10-31T02:04:14;1.25;;;0.50;;
17365;SDS011;8800;50.118;9.900;2023-10-31T02:06:41;2.20;;;0.55;;
17365;SDS011;8800;50.118;9.900;2023-10-31T02:09:08;0.63;;;0.50;;
17365;SDS011;8800;50.118;9.900;2023-10-31T02:11:34;0.68;;;0.50;;
17365;SDS011;8800;50.118;9.900;2023-10-31T02:14:03;1.15;;;0.47;;
17365;SDS011;8800;50.118;9.900;2023-10-31T02:16:29;1.15;;;0.60;;
17365;SDS011;8800;50.118;9.900;2023-10-31T02:18:58;2.85;;;0.60;;
17365;SDS011;8800;50.118;9.900;2023-10-31T02:21:24;2.40;;;0.60;;
17365;SDS011;8800;50.118;9.900;2023-10-31T02:23:59;1.38;;;0.50;;
17365;SDS011;8800;50.118;9.900;2023-10-31T02:26:28;0.60;;;0.50;;
17365;SDS011;8800;50.118;9.900;2023-10-31T02:29:04;0.88;;;0.60;;
17365;SDS011;8800;50.118;9.900;2023-10-31T02:31:32;0.50;;;0.50;;
17365;SDS011;8800;50.118;9.900;2023-10-31T02:33:59;0.73;;;0.50;;
17365;SDS011;8800;50.118;9.900;2023-10-31T02:36:25;0.93;;;0.40;;
17365;SDS011;8800;50.118;9.900;2023-10-31T02:38:52;1.20;;;0.50;;
17365;SDS011;8800;50.118;9.900;2023-10-31T02:41:21;0.68;;;0.60;;
17365;SDS011;8800;50.118;9.900;2023-10-31T02:43:48;0.95;;;0.50;;
17365;SDS011;8800;50.118;9.900;2023-10-31T02:46:15;1.15;;;0.70;;
17365;SDS011;8800;50.118;9.900;2023-10-31T02:48:43;2.03;;;0.73;;
17365;SDS011;8800;50.118;9.900;2023-10-31T02:51:09;0.60;;;0.60;;
17365;SDS011;8800;50.118;9.900;2023-10-31T02:53:36;0.70;;;0.50;;
17365;SDS011;8800;50.118;9.900;2023-10-31T02:56:03;2.17;;;0.95;;
17365;SDS011;8800;50.118;9.900;2023-10-31T02:58:31;3.42;;;0.50;;
17365;SDS011;8800;50.118;9.900;2023-10-31T03:01:01;2.17;;;0.57;;
17365;SDS011;8800;50.118;9.900;2023-10-31T03:03:31;1.65;;;0.77;;
17365;SDS011;8800;50.118;9.900;2023-10-31T03:05:58;1.10;;;0.70;;
17365;SDS011;8800;50.118;9.900;2023-10-31T03:08:25;2.45;;;0.60;;
17365;SDS011;8800;50.118;9.900;2023-10-31T03:10:54;3.38;;;0.70;;
17365;SDS011;8800;50.118;9.900;2023-10-31T03:13:23;0.50;;;0.50;;
17365;SDS011;8800;50.118;9.900;2023-10-31T03:15:51;2.28;;;0.80;;
17365;SDS011;8800;50.118;9.900;2023-10-31T03:18:18;0.60;;;0.60;;
17365;SDS011;8800;50.118;9.900;2023-10-31T03:20:44;1.08;;;0.70;;
17365;SDS011;8800;50.118;9.900;2023-10-31T03:23:12;2.28;;;0.65;;
17365;SDS011;8800;50.118;9.900;2023-10-31T03:25:39;4.03;;;0.60;;
17365;SDS011;8800;50.118;9.900;2023-10-31T03:28:07;0.30;;;0.30;;
17365;SDS011;8800;50.118;9.900;2023-10-31T03:30:34;0.82;;;0.50;;
17365;SDS011;8800;50.118;9.900;2023-10-31T03:33:02;2.80;;;0.50;;
17365;SDS011;8800;50.118;9.900;2023-10-31T03:35:29;3.20;;;0.45;;
17365;SDS011;8800;50.118;9.900;2023-10-31T03:37:55;0.82;;;0.43;;
17365;SDS011;8800;50.118;9.900;2023-10-31T03:40:22;0.40;;;0.40;;
17365;SDS011;8800;50.118;9.900;2023-10-31T03:42:48;0.60;;;0.35;;
17365;SDS011;8800;50.118;9.900;2023-10-31T03:45:15;1.98;;;0.60;;
17365;SDS011;8800;50.118;9.900;2023-10-31T03:47:42;1.60;;;0.40;;
17365;SDS011;8800;50.118;9.900;2023-10-31T03:50:10;0.68;;;0.50;;
17365;SDS011;8800;50.118;9.900;2023-10-31T03:52:36;1.17;;;0.73;;
17365;SDS011;8800;50.118;9.900;2023-10-31T03:55:03;2.95;;;0.63;;
17365;SDS011;8800;50.118;9.900;2023-10-31T03:57:30;2.28;;;1.00;;
17365;SDS011;8800;50.118;9.900;2023-10-31T03:59:57;1.52;;;0.90;;
17365;SDS011;8800;50.118;9.900;2023-10-31T04:02:24;3.97;;;0.70;;
17365;SDS011;8800;50.118;9.900;2023-10-31T04:04:50;1.58;;;0.57;;
17365;SDS011;8800;50.118;9.900;2023-10-31T04:07:18;0.98;;;0.40;;
17365;SDS011;8800;50.118;9.900;2023-10-31T04:09:45;0.35;;;0.35;;
17365;SDS011;8800;50.118;9.900;2023-10-31T04:12:12;1.40;;;0.50;;
17365;SDS011;8800;50.118;9.900;2023-10-31T04:14:39;1.17;;;0.55;;
17365;SDS011;8800;50.118;9.900;2023-10-31T04:17:06;2.20;;;0.40;;
17365;SDS011;8800;50.118;9.900;2023-10-31T04:19:32;1.85;;;0.73;;
17365;SDS011;8800;50.118;9.900;2023-10-31T04:21:59;0.45;;;0.32;;
17365;SDS011;8800;50.118;9.900;2023-10-31T04:24:27;1.15;;;0.52;;
17365;SDS011;8800;50.118;9.900;2023-10-31T04:26:54;0.57;;;0.40;;
17365;SDS011;8800;50.118;9.900;2023-10-31T04:29:20;1.55;;;0.40;;
17365;SDS011;8800;50.118;9.900;2023-10-31T04:31:47;2.95;;;0.50;;
17365;SDS011;8800;50.118;9.900;2023-10-31T04:34:14;1.42;;;0.60;;
17365;SDS011;8800;50.118;9.900;2023-10-31T04:36:40;0.65;;;0.55;;
17365;SDS011;8800;50.118;9.900;2023-10-31T04:39:07;1.73;;;0.90;;
17365;SDS011;8800;50.118;9.900;2023-10-31T04:41:35;1.10;;;0.60;;
17365;SDS011;8800;50.118;9.900;2023-10-31T04:44:02;2.22;;;0.57;;
17365;SDS011;8800;50.118;9.900;2023-10-31T04:46:28;0.95;;;0.65;;
17365;SDS011;8800;50.118;9.900;2023-10-31T04:48:55;3.20;;;0.60;;
17365;SDS011;8800;50.118;9.900;2023-10-31T04:51:22;1.23;;;0.60;;
17365;SDS011;8800;50.118;9.900;2023-10-31T04:53:49;0.88;;;0.60;;
17365;SDS011;8800;50.118;9.900;2023-10-31T04:56:15;1.15;;;0.65;;
17365;SDS011;8800;50.118;9.900;2023-10-31T04:58:43;1.58;;;0.57;;
17365;SDS011;8800;50.118;9.900;2023-10-31T05:01:11;1.38;;;0.45;;
17365;SDS011;8800;50.118;9.900;2023-10-31T05:03:38;1.85;;;0.70;;
17365;SDS011;8800;50.118;9.900;2023-10-31T05:06:05;0.77;;;0.50;;
17365;SDS011;8800;50.118;9.900;2023-10-31T05:08:32;2.83;;;0.50;;
17365;SDS011;8800;50.118;9.900;2023-10-31T05:10:59;4.95;;;0.75;;
17365;SDS011;8800;50.118;9.900;2023-10-31T05:13:26;2.03;;;0.60;;
17365;SDS011;8800;50.118;9.900;2023-10-31T05:15:54;1.10;;;0.70;;
17365;SDS011;8800;50.118;9.900;2023-10-31T05:18:21;0.47;;;0.38;;
17365;SDS011;8800;50.118;9.900;2023-10-31T05:20:48;1.73;;;0.57;;
17365;SDS011;8800;50.118;9.900;2023-10-31T05:23:15;1.52;;;0.70;;
17365;SDS011;8800;50.118;9.900;2023-10-31T05:25:41;2.33;;;0.80;;
17365;SDS011;8800;50.118;9.900;2023-10-31T05:28:08;2.05;;;1.05;;
17365;SDS011;8800;50.118;9.900;2023-10-31T05:30:35;1.52;;;0.70;;
17365;SDS011;8800;50.118;9.900;2023-10-31T05:33:03;1.65;;;0.60;;
17365;SDS011;8800;50.118;9.900;2023-10-31T05:35:30;2.08;;;0.80;;
17365;SDS011;8800;50.118;9.900;2023-10-31T05:37:56;1.15;;;0.50;;
17365;SDS011;8800;50.118;9.900;2023-10-31T05:40:23;2.90;;;0.70;;
17365;SDS011;8800;50.118;9.900;2023-10-31T05:42:51;1.40;;;0.43;;
17365;SDS011;8800;50.118;9.900;2023-10-31T05:45:18;1.35;;;0.50;;
17365;SDS011;8800;50.118;9.900;2023-10-31T05:47:44;1.83;;;0.50;;
17365;SDS011;8800;50.118;9.900;2023-10-31T05:50:12;1.95;;;0.65;;
17365;SDS011;8800;50.118;9.900;2023-10-31T05:52:39;1.20;;;0.70;;
17365;SDS011;8800;50.118;9.900;2023-10-31T05:55:06;1.33;;;0.52;;
17365;SDS011;8800;50.118;9.900;2023-10-31T05:57:33;0.80;;;0.50;;
17365;SDS011;8800;50.118;9.900;2023-10-31T05:59:59;2.17;;;0.60;;
17365;SDS011;8800;50.118;9.900;2023-10-31T06:02:26;1.38;;;0.80;;
17365;SDS011;8800;50.118;9.900;2023-10-31T06:04:54;1.15;;;0.60;;
17365;SDS011;8800;50.118;9.900;2023-10-31T06:07:22;2.50;;;0.80;;
17365;SDS011;8800;50.118;9.900;2023-10-31T06:09:48;0.77;;;0.60;;
17365;SDS011;8800;50.118;9.900;2023-10-31T06:12:15;0.60;;;0.50;;
17365;SDS011;8800;50.118;9.900;2023-10-31T06:14:42;2.35;;;0.60;;
17365;SDS011;8800;50.118;9.900;2023-10-31T06:17:08;2.65;;;0.88;;
17365;SDS011;8800;50.118;9.900;2023-10-31T06:19:35;1.73;;;0.90;;
17365;SDS011;8800;50.118;9.900;2023-10-31T06:22:02;1.23;;;0.60;;
17365;SDS011;8800;50.118;9.900;2023-10-31T06:24:30;2.30;;;1.30;;
17365;SDS011;8800;50.118;9.900;2023-10-31T06:26:57;1.63;;;0.68;;
17365;SDS011;8800;50.118;9.900;2023-10-31T06:29:24;0.98;;;0.88;;
17365;SDS011;8800;50.118;9.900;2023-10-31T06:31:50;1.17;;;0.70;;
17365;SDS011;8800;50.118;9.900;2023-10-31T06:34:17;1.77;;;0.93;;
17365;SDS011;8800;50.118;9.900;2023-10-31T06:36:44;2.90;;;1.40;;
17365;SDS011;8800;50.118;9.900;2023-10-31T06:39:11;3.85;;;1.02;;
17365;SDS011;8800;50.118;9.900;2023-10-31T06:41:39;3.33;;;1.10;;
17365;SDS011;8800;50.118;9.900;2023-10-31T06:44:06;6.82;;;2.72;;
17365;SDS011;8800;50.118;9.900;2023-10-31T06:46:33;2.70;;;1.20;;
17365;SDS011;8800;50.118;9.900;2023-10-31T06:49:00;5.95;;;2.38;;
17365;SDS011;8800;50.118;9.900;2023-10-31T06:51:26;7.35;;;2.35;;
17365;SDS011;8800;50.118;9.900;2023-10-31T06:53:53;9.48;;;4.45;;
17365;SDS011;8800;50.118;9.900;2023-10-31T06:56:19;11.85;;;6.32;;
17365;SDS011;8800;50.118;9.900;2023-10-31T06:58:48;2.22;;;1.65;;
17365;SDS011;8800;50.118;9.900;2023-10-31T07:01:15;3.53;;;0.80;;
17365;SDS011;8800;50.118;9.900;2023-10-31T07:03:44;2.90;;;0.93;;
17365;SDS011;8800;50.118;9.900;2023-10-31T07:06:11;3.13;;;0.60;;
17365;SDS011;8800;50.118;9.900;2023-10-31T07:08:37;0.93;;;0.60;;
17365;SDS011;8800;50.118;9.900;2023-10-31T07:11:04;1.33;;;0.65;;
17365;SDS011;8800;50.118;9.900;2023-10-31T07:13:31;2.17;;;1.10;;
17365;SDS011;8800;50.118;9.900;2023-10-31T07:15:59;0.98;;;0.70;;
17365;SDS011;8800;50.118;9.900;2023-10-31T07:18:25;1.80;;;0.75;;
17365;SDS011;8800;50.118;9.900;2023-10-31T07:20:51;2.42;;;1.00;;
17365;SDS011;8800;50.118;9.900;2023-10-31T07:23:18;4.28;;;1.58;;
17365;SDS011;8800;50.118;9.900;2023-10-31T07:25:45;6.20;;;1.50;;
17365;SDS011;8800;50.118;9.900;2023-10-31T07:28:12;2.97;;;1.27;;
17365;SDS011;8800;50.118;9.900;2023-10-31T07:30:38;1.70;;;1.00;;
17365;SDS011;8800;50.118;9.900;2023-10-31T07:33:06;3.05;;;1.08;;
17365;SDS011;8800;50.118;9.900;2023-10-31T07:35:33;3.78;;;1.00;;
17365;SDS011;8800;50.118;9.900;2023-10-31T07:38:00;2.13;;;1.20;;
17365;SDS011;8800;50.118;9.900;2023-10-31T07:40:26;2.22;;;0.80;;
17365;SDS011;8800;50.118;9.900;2023-10-31T07:42:53;1.10;;;0.70;;
17365;SDS011;8800;50.118;9.900;2023-10-31T07:45:19;3.75;;;0.80;;
17365;SDS011;8800;50.118;9.900;2023-10-31T07:47:46;3.00;;;0.60;;
17365;SDS011;8800;50.118;9.900;2023-10-31T07:50:15;0.60;;;0.57;;
17365;SDS011;8800;50.118;9.900;2023-10-31T07:52:41;2.28;;;1.10;;
17365;SDS011;8800;50.118;9.900;2023-10-31T07:55:09;4.43;;;2.22;;
17365;SDS011;8800;50.118;9.900;2023-10-31T07:57:36;2.70;;;1.38;;
17365;SDS011;8800;50.118;9.900;2023-10-31T08:00:03;5.20;;;2.90;;
17365;SDS011;8800;50.118;9.900;2023-10-31T08:02:30;3.70;;;1.80;;
17365;SDS011;8800;50.118;9.900;2023-10-31T08:04:57;3.75;;;2.00;;
17365;SDS011;8800;50.118;9.900;2023-10-31T08:07:25;3.40;;;2.03;;
17365;SDS011;8800;50.118;9.900;2023-10-31T08:09:55;3.40;;;1.30;;
17365;SDS011;8800;50.118;9.900;2023-10-31T08:12:21;3.17;;;1.30;;
17365;SDS011;8800;50.118;9.900;2023-10-31T08:14:48;1.42;;;1.02;;
17365;SDS011;8800;50.118;9.900;2023-10-31T08:17:14;2.95;;;1.25;;
17365;SDS011;8800;50.118;9.900;2023-10-31T08:19:41;3.15;;;1.80;;
17365;SDS011;8800;50.118;9.900;2023-10-31T08:22:08;3.35;;;1.85;;
17365;SDS011;8800;50.118;9.900;2023-10-31T08:24:35;7.60;;;3.30;;
17365;SDS011;8800;50.118;9.900;2023-10-31T08:27:02;2.03;;;1.38;;
17365;SDS011;8800;50.118;9.900;2023-10-31T08:29:28;2.15;;;0.65;;
17365;SDS011;8800;50.118;9.900;2023-10-31T08:31:55;1.98;;;1.20;;
17365;SDS011;8800;50.118;9.900;2023-10-31T08:34:22;2.15;;;1.10;;
17365;SDS011;8800;50.118;9.900;2023-10-31T08:36:49;1.95;;;0.80;;
17365;SDS011;8800;50.118;9.900;2023-10-31T08:39:18;2.40;;;0.93;;
17365;SDS011;8800;50.118;9.900;2023-10-31T08:41:52;3.60;;;1.50;;
17365;SDS011;8800;50.118;9.900;2023-10-31T08:44:19;3.90;;;1.50;;
17365;SDS011;8800;50.118;9.900;2023-10-31T08:46:46;0.93;;;0.75;;
17365;SDS011;8800;50.118;9.900;2023-10-31T08:49:12;3.08;;;0.80;;
17365;SDS011;8800;50.118;9.900;2023-10-31T08:51:39;1.00;;;0.90;;
17365;SDS011;8800;50.118;9.900;2023-10-31T08:54:05;2.50;;;1.00;;
17365;SDS011;8800;50.118;9.900;2023-10-31T08:56:32;3.55;;;0.82;;
17365;SDS011;8800;50.118;9.900;2023-10-31T08:59:00;1.95;;;1.27;;
17365;SDS011;8800;50.118;9.900;2023-10-31T09:01:27;2.15;;;1.00;;
17365;SDS011;8800;50.118;9.900;2023-10-31T09:03:54;3.63;;;1.20;;
17365;SDS011;8800;50.118;9.900;2023-10-31T09:06:21;1.20;;;0.85;;
17365;SDS011;8800;50.118;9.900;2023-10-31T09:08:47;4.78;;;1.33;;
17365;SDS011;8800;50.118;9.900;2023-10-31T09:11:15;3.00;;;0.77;;
17365;SDS011;8800;50.118;9.900;2023-10-31T09:13:41;2.42;;;1.25;;
17365;SDS011;8800;50.118;9.900;2023-10-31T09:16:09;2.55;;;1.52;;
17365;SDS011;8800;50.118;9.900;2023-10-31T09:18:36;3.10;;;1.70;;
17365;SDS011;8800;50.118;9.900;2023-10-31T09:21:03;3.47;;;0.77;;
17365;SDS011;8800;50.118;9.900;2023-10-31T09:23:30;3.33;;;1.52;;
17365;SDS011;8800;50.118;9.900;2023-10-31T09:25:56;3.42;;;2.00;;
17365;SDS011;8800;50.118;9.900;2023-10-31T09:28:23;2.42;;;1.50;;
17365;SDS011;8800;50.118;9.900;2023-10-31T09:30:50;1.88;;;0.90;;
17365;SDS011;8800;50.118;9.900;2023-10-31T09:33:19;2.63;;;1.00;;
17365;SDS011;8800;50.118;9.900;2023-10-31T09:35:46;2.38;;;0.90;;
17365;SDS011;8800;50.118;9.900;2023-10-31T09:38:12;2.88;;;1.65;;
17365;SDS011;8800;50.118;9.900;2023-10-31T09:40:39;2.05;;;1.15;;
17365;SDS011;8800;50.118;9.900;2023-10-31T09:43:05;1.50;;;1.00;;
17365;SDS011;8800;50.118;9.900;2023-10-31T09:45:32;2.42;;;1.40;;
17365;SDS011;8800;50.118;9.900;2023-10-31T09:47:59;5.45;;;1.15;;
17365;SDS011;8800;50.118;9.900;2023-10-31T09:50:28;2.28;;;0.85;;
17365;SDS011;8800;50.118;9.900;2023-10-31T09:52:56;3.20;;;2.00;;
17365;SDS011;8800;50.118;9.900;2023-10-31T09:55:23;1.67;;;1.35;;
17365;SDS011;8800;50.118;9.900;2023-10-31T09:57:50;2.53;;;0.88;;
17365;SDS011;8800;50.118;9.900;2023-10-31T10:00:18;3.15;;;0.90;;
17365;SDS011;8800;50.118;9.900;2023-10-31T10:02:44;2.90;;;0.90;;
17365;SDS011;8800;50.118;9.900;2023-10-31T10:05:11;2.58;;;1.00;;
17365;SDS011;8800;50.118;9.900;2023-10-31T10:07:42;1.83;;;0.63;;
17365;SDS011;8800;50.118;9.900;2023-10-31T10:10:10;3.95;;;0.80;;
17365;SDS011;8800;50.118;9.900;2023-10-31T10:12:37;2.47;;;0.90;;
17365;SDS011;8800;50.118;9.900;2023-10-31T10:15:03;1.45;;;0.50;;
17365;SDS011;8800;50.118;9.900;2023-10-31T10:17:30;3.95;;;1.88;;
17365;SDS011;8800;50.118;9.900;2023-10-31T10:20:05;5.65;;;1.38;;
17365;SDS011;8800;50.118;9.900;2023-10-31T10:22:32;3.33;;;1.20;;
17365;SDS011;8800;50.118;9.900;2023-10-31T10:25:00;1.92;;;1.25;;
17365;SDS011;8800;50.118;9.900;2023-10-31T10:27:27;1.98;;;1.00;;
17365;SDS011;8800;50.118;9.900;2023-10-31T10:29:53;1.73;;;0.90;;
17365;SDS011;8800;50.118;9.900;2023-10-31T10:32:20;1.95;;;1.13;;
17365;SDS011;8800;50.118;9.900;2023-10-31T10:34:46;3.58;;;1.23;;
17365;SDS011;8800;50.118;9.900;2023-10-31T10:37:13;1.70;;;1.02;;
17365;SDS011;8800;50.118;9.900;2023-10-31T10:39:39;2.70;;;1.10;;
17365;SDS011;8800;50.118;9.900;2023-10-31T10:42:09;2.15;;;0.82;;
17365;SDS011;8800;50.118;9.900;2023-10-31T10:44:37;1.88;;;1.20;;
17365;SDS011;8800;50.118;9.900;2023-10-31T10:47:05;1.50;;;0.60;;
17365;SDS011;8800;50.118;9.900;2023-10-31T10:49:33;4.40;;;1.42;;
17365;SDS011;8800;50.118;9.900;2023-10-31T10:52:01;3.47;;;1.77;;
17365;SDS011;8800;50.118;9.900;2023-10-31T10:54:32;9.85;;;1.85;;
17365;SDS011;8800;50.118;9.900;2023-10-31T10:57:03;2.55;;;1.27;;
17365;SDS011;8800;50.118;9.900;2023-10-31T10:59:34;4.65;;;1.60;;
17365;SDS011;8800;50.118;9.900;2023-10-31T11:02:05;3.10;;;1.35;;
17365;SDS011;8800;50.118;9.900;2023-10-31T11:04:32;2.38;;;1.42;;
17365;SDS011;8800;50.118;9.900;2023-10-31T11:07:00;3.00;;;1.23;;
17365;SDS011;8800;50.118;9.900;2023-10-31T11:09:26;4.78;;;1.40;;
17365;SDS011;8800;50.118;9.900;2023-10-31T11:11:53;1.88;;;1.05;;
17365;SDS011;8800;50.118;9.900;2023-10-31T11:14:20;1.92;;;1.00;;
17365;SDS011;8800;50.118;9.900;2023-10-31T11:16:50;2.63;;;1.00;;
17365;SDS011;8800;50.118;9.900;2023-10-31T11:19:17;2.05;;;0.85;;
17365;SDS011;8800;50.118;9.900;2023-10-31T11:21:54;3.08;;;0.77;;
17365;SDS011;8800;50.118;9.900;2023-10-31T11:24:21;2.97;;;1.77;;
17365;SDS011;8800;50.118;9.900;2023-10-31T11:26:52;2.88;;;1.30;;
17365;SDS011;8800;50.118;9.900;2023-10-31T11:29:19;1.45;;;0.80;;
17365;SDS011;8800;50.118;9.900;2023-10-31T11:31:46;4.00;;;1.30;;
17365;SDS011;8800;50.118;9.900;2023-10-31T11:34:14;3.17;;;1.50;;
17365;SDS011;8800;50.118;9.900;2023-10-31T11:36:41;3.72;;;2.10;;
17365;SDS011;8800;50.118;9.900;2023-10-31T11:39:11;4.05;;;2.10;;
17365;SDS011;8800;50.118;9.900;2023-10-31T11:41:39;1.13;;;0.50;;
17365;SDS011;8800;50.118;9.900;2023-10-31T11:44:06;1.60;;;0.68;;
17365;SDS011;8800;50.118;9.900;2023-10-31T11:46:32;1.15;;;0.68;;
17365;SDS011;8800;50.118;9.900;2023-10-31T11:48:59;4.35;;;0.98;;
17365;SDS011;8800;50.118;9.900;2023-10-31T11:51:28;2.13;;;0.80;;
17365;SDS011;8800;50.118;9.900;2023-10-31T11:53:55;0.68;;;0.57;;
17365;SDS011;8800;50.118;9.900;2023-10-31T11:56:22;1.95;;;0.90;;
17365;SDS011;8800;50.118;9.900;2023-10-31T11:58:55;3.10;;;1.13;;
17365;SDS011;8800;50.118;9.900;2023-10-31T12:01:23;1.50;;;0.60;;
17365;SDS011;8800;50.118;9.900;2023-10-31T12:03:50;0.98;;;0.60;;
17365;SDS011;8800;50.118;9.900;2023-10-31T12:06:17;1.30;;;0.82;;
17365;SDS011;8800;50.118;9.900;2023-10-31T12:08:48;1.60;;;0.93;;
17365;SDS011;8800;50.118;9.900;2023-10-31T12:11:15;2.45;;;1.00;;
17365;SDS011;8800;50.118;9.900;2023-10-31T12:13:51;2.08;;;0.70;;
17365;SDS011;8800;50.118;9.900;2023-10-31T12:16:18;3.08;;;0.75;;
17365;SDS011;8800;50.118;9.900;2023-10-31T12:18:45;3.70;;;1.00;;
17365;SDS011;8800;50.118;9.900;2023-10-31T12:21:12;2.28;;;0.47;;
17365;SDS011;8800;50.118;9.900;2023-10-31T12:23:40;3.92;;;0.60;;
17365;SDS011;8800;50.118;9.900;2023-10-31T12:26:08;3.45;;;1.20;;
17365;SDS011;8800;50.118;9.900;2023-10-31T12:28:36;3.40;;;0.90;;
17365;SDS011;8800;50.118;9.900;2023-10-31T12:31:03;2.78;;;1.00;;
17365;SDS011;8800;50.118;9.900;2023-10-31T12:33:30;3.35;;;1.60;;
17365;SDS011;8800;50.118;9.900;2023-10-31T12:35:59;1.33;;;0.90;;
17365;SDS011;8800;50.118;9.900;2023-10-31T12:38:26;4.63;;;1.08;;
17365;SDS011;8800;50.118;9.900;2023-10-31T12:40:53;3.45;;;1.13;;
17365;SDS011;8800;50.118;9.900;2023-10-31T12:43:23;1.70;;;1.05;;
17365;SDS011;8800;50.118;9.900;2023-10-31T12:45:50;2.88;;;1.05;;
17365;SDS011;8800;50.118;9.900;2023-10-31T12:48:23;1.65;;;0.82;;
17365;SDS011;8800;50.118;9.900;2023-10-31T12:50:50;1.45;;;1.00;;
17365;SDS011;8800;50.118;9.900;2023-10-31T12:53:31;2.60;;;1.50;;
17365;SDS011;8800;50.118;9.900;2023-10-31T12:55:59;2.85;;;1.13;;
17365;SDS011;8800;50.118;9.900;2023-10-31T12:58:28;2.35;;;1.38;;
17365;SDS011;8800;50.118;9.900;2023-10-31T13:00:55;3.65;;;1.02;;
17365;SDS011;8800;50.118;9.900;2023-10-31T13:03:22;1.95;;;0.95;;
17365;SDS011;8800;50.118;9.900;2023-10-31T13:05:48;2.53;;;1.02;;
17365;SDS011;8800;50.118;9.900;2023-10-31T13:08:16;2.47;;;0.85;;
17365;SDS011;8800;50.118;9.900;2023-10-31T13:10:42;3.17;;;1.10;;
17365;SDS011;8800;50.118;9.900;2023-10-31T13:13:10;2.42;;;1.08;;
17365;SDS011;8800;50.118;9.900;2023-10-31T13:15:38;4.05;;;1.70;;
17365;SDS011;8800;50.118;9.900;2023-10-31T13:18:05;3.33;;;1.52;;
17365;SDS011;8800;50.118;9.900;2023-10-31T13:20:32;4.40;;;1.48;;
17365;SDS011;8800;50.118;9.900;2023-10-31T13:22:59;1.58;;;0.90;;
17365;SDS011;8800;50.118;9.900;2023-10-31T13:25:28;1.92;;;1.15;;
17365;SDS011;8800;50.118;9.900;2023-10-31T13:27:56;3.90;;;1.80;;
17365;SDS011;8800;50.118;9.900;2023-10-31T13:30:23;4.97;;;1.98;;
17365;SDS011;8800;50.118;9.900;2023-10-31T13:32:52;3.25;;;1.13;;
17365;SDS011;8800;50.118;9.900;2023-10-31T13:35:18;2.40;;;1.65;;
17365;SDS011;8800;50.118;9.900;2023-10-31T13:37:45;1.35;;;1.02;;
17365;SDS011;8800;50.118;9.900;2023-10-31T13:40:12;3.15;;;1.10;;
17365;SDS011;8800;50.118;9.900;2023-10-31T13:42:38;5.93;;;1.27;;
17365;SDS011;8800;50.118;9.900;2023-10-31T13:45:05;4.00;;;1.10;;
17365;SDS011;8800;50.118;9.900;2023-10-31T13:47:32;3.58;;;1.35;;
17365;SDS011;8800;50.118;9.900;2023-10-31T13:50:00;2.83;;;1.42;;
17365;SDS011;8800;50.118;9.900;2023-10-31T13:52:26;2.80;;;1.25;;
17365;SDS011;8800;50.118;9.900;2023-10-31T13:54:53;3.88;;;0.80;;
17365;SDS011;8800;50.118;9.900;2023-10-31T13:57:20;1.75;;;0.90;;
17365;SDS011;8800;50.118;9.900;2023-10-31T13:59:47;4.75;;;1.40;;
17365;SDS011;8800;50.118;9.900;2023-10-31T14:02:13;4.78;;;1.00;;
17365;SDS011;8800;50.118;9.900;2023-10-31T14:04:42;5.10;;;1.00;;
17365;SDS011;8800;50.118;9.900;2023-10-31T14:07:10;1.40;;;0.90;;
17365;SDS011;8800;50.118;9.900;2023-10-31T14:09:38;8.20;;;1.00;;
17365;SDS011;8800;50.118;9.900;2023-10-31T14:12:08;2.25;;;1.10;;
17365;SDS011;8800;50.118;9.900;2023-10-31T14:14:34;2.53;;;1.30;;
17365;SDS011;8800;50.118;9.900;2023-10-31T14:17:01;3.47;;;1.00;;
17365;SDS011;8800;50.118;9.900;2023-10-31T14:19:30;2.42;;;0.85;;
17365;SDS011;8800;50.118;9.900;2023-10-31T14:21:56;4.20;;;0.90;;
17365;SDS011;8800;50.118;9.900;2023-10-31T14:24:24;6.07;;;1.55;;
17365;SDS011;8800;50.118;9.900;2023-10-31T14:26:51;4.88;;;1.20;;
17365;SDS011;8800;50.118;9.900;2023-10-31T14:29:18;8.75;;;2.40;;
17365;SDS011;8800;50.118;9.900;2023-10-31T14:31:44;7.80;;;2.00;;
17365;SDS011;8800;50.118;9.900;2023-10-31T14:34:11;3.08;;;1.05;;
17365;SDS011;8800;50.118;9.900;2023-10-31T14:36:38;3.15;;;1.15;;
17365;SDS011;8800;50.118;9.900;2023-10-31T14:39:04;2.58;;;1.15;;
17365;SDS011;8800;50.118;9.900;2023-10-31T14:41:33;5.32;;;1.48;;
17365;SDS011;8800;50.118;9.900;2023-10-31T14:43:59;6.90;;;1.25;;
17365;SDS011;8800;50.118;9.900;2023-10-31T14:46:26;2.78;;;1.10;;
17365;SDS011;8800;50.118;9.900;2023-10-31T14:48:53;5.22;;;1.80;;
17365;SDS011;8800;50.118;9.900;2023-10-31T14:51:23;3.88;;;1.35;;
17365;SDS011;8800;50.118;9.900;2023-10-31T14:53:49;2.05;;;1.13;;
17365;SDS011;8800;50.118;9.900;2023-10-31T14:56:16;5.28;;;1.20;;
17365;SDS011;8800;50.118;9.900;2023-10-31T14:58:45;2.28;;;0.93;;
17365;SDS011;8800;50.118;9.900;2023-10-31T15:01:12;3.55;;;1.20;;